Urb Brisas Tropical, Puerto Rico
Current Conditions -  °F | °C
As of 2:50 PM on Thursday 18 Dec 2014 (Local Time) from TJBQ Reporting Station
Scattered Clouds Scattered Clouds  
Wind Chill: 81°   Ceiling: Unl
Heat Index: 83°   Visibility: 10mi
Dew Point: 68°   Wind: 16mph
Humidity: 65%   Direction: 80°E
Pressure: 29.99"   Gusts: NA
Location:  18.4738°N, 66.9364°W
Report Text: TJBQ 181850Z 08014KT 10SM SCT023 SCT028 SCT034 27/20 A2999 RMK RWY08 ATIS Y
Loading
Personal Weather Stations






























Interactive Weather Map New forecast layout! Learn more

10-Day Weather Forecast

Advertisements
Track Severe Weather on mobile